sensor_id;sensor_type;location;lat;lon;timestamp;P1;durP1;ratioP1;P2;durP2;ratioP2
46563;SDS011;32291;52.010;4.446;2023-07-09T00:01:00;11.77;;;10.77;;
46563;SDS011;32291;52.010;4.446;2023-07-09T00:02:04;11.88;;;10.68;;
46563;SDS011;32291;52.010;4.446;2023-07-09T00:03:08;12.10;;;10.60;;
46563;SDS011;32291;52.010;4.446;2023-07-09T00:04:13;13.02;;;11.50;;
46563;SDS011;32291;52.010;4.446;2023-07-09T00:05:20;12.40;;;11.20;;
46563;SDS011;32291;52.010;4.446;2023-07-09T00:06:23;12.75;;;11.52;;
46563;SDS011;32291;52.010;4.446;2023-07-09T00:07:31;11.43;;;10.43;;
46563;SDS011;32291;52.010;4.446;2023-07-09T00:08:35;12.82;;;11.63;;
46563;SDS011;32291;52.010;4.446;2023-07-09T00:09:50;12.75;;;11.55;;
46563;SDS011;32291;52.010;4.446;2023-07-09T00:10:57;11.93;;;10.73;;
46563;SDS011;32291;52.010;4.446;2023-07-09T00:12:04;13.18;;;11.98;;
46563;SDS011;32291;52.010;4.446;2023-07-09T00:13:21;13.05;;;11.65;;
46563;SDS011;32291;52.010;4.446;2023-07-09T00:14:30;13.57;;;12.18;;
46563;SDS011;32291;52.010;4.446;2023-07-09T00:15:35;12.15;;;10.95;;
46563;SDS011;32291;52.010;4.446;2023-07-09T00:16:38;12.25;;;11.15;;
46563;SDS011;32291;52.010;4.446;2023-07-09T00:17:46;12.43;;;11.18;;
46563;SDS011;32291;52.010;4.446;2023-07-09T00:18:48;12.50;;;11.23;;
46563;SDS011;32291;52.010;4.446;2023-07-09T00:19:51;12.32;;;11.13;;
46563;SDS011;32291;52.010;4.446;2023-07-09T00:20:58;15.60;;;12.38;;
46563;SDS011;32291;52.010;4.446;2023-07-09T00:22:01;12.32;;;11.23;;
46563;SDS011;32291;52.010;4.446;2023-07-09T00:23:19;12.68;;;11.48;;
46563;SDS011;32291;52.010;4.446;2023-07-09T00:24:21;12.15;;;11.02;;
46563;SDS011;32291;52.010;4.446;2023-07-09T00:25:32;11.63;;;10.57;;
46563;SDS011;32291;52.010;4.446;2023-07-09T00:26:38;12.60;;;11.50;;
46563;SDS011;32291;52.010;4.446;2023-07-09T00:27:42;12.70;;;11.50;;
46563;SDS011;32291;52.010;4.446;2023-07-09T00:28:52;13.02;;;11.93;;
46563;SDS011;32291;52.010;4.446;2023-07-09T00:29:59;12.68;;;11.48;;
46563;SDS011;32291;52.010;4.446;2023-07-09T00:31:01;12.35;;;11.15;;
46563;SDS011;32291;52.010;4.446;2023-07-09T00:32:10;13.45;;;12.05;;
46563;SDS011;32291;52.010;4.446;2023-07-09T00:33:26;12.55;;;11.38;;
46563;SDS011;32291;52.010;4.446;2023-07-09T00:34:32;13.30;;;11.88;;
46563;SDS011;32291;52.010;4.446;2023-07-09T00:35:35;12.05;;;10.95;;
46563;SDS011;32291;52.010;4.446;2023-07-09T00:36:42;12.60;;;11.50;;
46563;SDS011;32291;52.010;4.446;2023-07-09T00:37:47;12.20;;;11.00;;
46563;SDS011;32291;52.010;4.446;2023-07-09T00:38:49;12.77;;;11.27;;
46563;SDS011;32291;52.010;4.446;2023-07-09T00:39:57;13.05;;;11.80;;
46563;SDS011;32291;52.010;4.446;2023-07-09T00:42:14;12.93;;;11.82;;
46563;SDS011;32291;52.010;4.446;2023-07-09T00:43:33;12.40;;;11.30;;
46563;SDS011;32291;52.010;4.446;2023-07-09T00:44:43;14.00;;;12.70;;
46563;SDS011;32291;52.010;4.446;2023-07-09T00:46:07;12.88;;;11.65;;
46563;SDS011;32291;52.010;4.446;2023-07-09T00:48:56;13.98;;;12.63;;
46563;SDS011;32291;52.010;4.446;2023-07-09T00:51:40;13.55;;;12.30;;
46563;SDS011;32291;52.010;4.446;2023-07-09T00:52:49;12.68;;;11.52;;
46563;SDS011;32291;52.010;4.446;2023-07-09T00:53:58;13.75;;;12.40;;
46563;SDS011;32291;52.010;4.446;2023-07-09T00:55:17;12.73;;;11.60;;
46563;SDS011;32291;52.010;4.446;2023-07-09T00:56:28;13.77;;;12.57;;
46563;SDS011;32291;52.010;4.446;2023-07-09T00:57:39;14.20;;;12.90;;
46563;SDS011;32291;52.010;4.446;2023-07-09T00:58:49;13.45;;;12.25;;
46563;SDS011;32291;52.010;4.446;2023-07-09T00:59:57;14.82;;;13.23;;
46563;SDS011;32291;52.010;4.446;2023-07-09T01:01:15;14.02;;;12.57;;
46563;SDS011;32291;52.010;4.446;2023-07-09T01:02:20;13.27;;;11.98;;
46563;SDS011;32291;52.010;4.446;2023-07-09T01:03:37;13.93;;;12.63;;
46563;SDS011;32291;52.010;4.446;2023-07-09T01:04:51;14.45;;;13.05;;
46563;SDS011;32291;52.010;4.446;2023-07-09T01:06:06;13.00;;;11.90;;
46563;SDS011;32291;52.010;4.446;2023-07-09T01:07:11;13.23;;;12.07;;
46563;SDS011;32291;52.010;4.446;2023-07-09T01:08:18;12.63;;;11.63;;
46563;SDS011;32291;52.010;4.446;2023-07-09T01:09:22;16.45;;;12.68;;
46563;SDS011;32291;52.010;4.446;2023-07-09T01:10:31;13.60;;;12.30;;
46563;SDS011;32291;52.010;4.446;2023-07-09T01:11:38;13.55;;;12.27;;
46563;SDS011;32291;52.010;4.446;2023-07-09T01:12:40;13.20;;;11.90;;
46563;SDS011;32291;52.010;4.446;2023-07-09T01:13:43;12.20;;;11.18;;
46563;SDS011;32291;52.010;4.446;2023-07-09T01:14:47;13.27;;;11.90;;
46563;SDS011;32291;52.010;4.446;2023-07-09T01:15:54;12.18;;;10.95;;
46563;SDS011;32291;52.010;4.446;2023-07-09T01:17:01;13.30;;;12.00;;
46563;SDS011;32291;52.010;4.446;2023-07-09T01:18:07;13.23;;;12.13;;
46563;SDS011;32291;52.010;4.446;2023-07-09T01:19:12;12.43;;;11.32;;
46563;SDS011;32291;52.010;4.446;2023-07-09T01:20:18;12.38;;;11.27;;
46563;SDS011;32291;52.010;4.446;2023-07-09T01:21:22;13.70;;;12.30;;
46563;SDS011;32291;52.010;4.446;2023-07-09T01:22:24;13.13;;;11.77;;
46563;SDS011;32291;52.010;4.446;2023-07-09T01:23:33;13.75;;;12.43;;
46563;SDS011;32291;52.010;4.446;2023-07-09T01:26:11;13.07;;;11.85;;
46563;SDS011;32291;52.010;4.446;2023-07-09T01:27:16;13.30;;;12.05;;
46563;SDS011;32291;52.010;4.446;2023-07-09T01:28:22;13.13;;;11.98;;
46563;SDS011;32291;52.010;4.446;2023-07-09T01:29:24;12.90;;;11.75;;
46563;SDS011;32291;52.010;4.446;2023-07-09T01:30:36;12.82;;;11.63;;
46563;SDS011;32291;52.010;4.446;2023-07-09T01:31:46;12.63;;;11.43;;
46563;SDS011;32291;52.010;4.446;2023-07-09T01:32:49;13.23;;;12.13;;
46563;SDS011;32291;52.010;4.446;2023-07-09T01:33:52;13.65;;;12.35;;
46563;SDS011;32291;52.010;4.446;2023-07-09T01:35:03;12.10;;;10.95;;
46563;SDS011;32291;52.010;4.446;2023-07-09T01:36:08;13.07;;;11.90;;
46563;SDS011;32291;52.010;4.446;2023-07-09T01:37:30;13.40;;;12.23;;
46563;SDS011;32291;52.010;4.446;2023-07-09T01:38:37;13.05;;;11.75;;
46563;SDS011;32291;52.010;4.446;2023-07-09T01:39:39;13.10;;;11.88;;
46563;SDS011;32291;52.010;4.446;2023-07-09T01:40:44;13.52;;;12.13;;
46563;SDS011;32291;52.010;4.446;2023-07-09T01:41:52;12.07;;;11.05;;
46563;SDS011;32291;52.010;4.446;2023-07-09T01:43:00;13.45;;;12.25;;
46563;SDS011;32291;52.010;4.446;2023-07-09T01:44:08;12.70;;;11.50;;
46563;SDS011;32291;52.010;4.446;2023-07-09T01:45:13;13.18;;;12.07;;
46563;SDS011;32291;52.010;4.446;2023-07-09T01:46:16;13.20;;;12.00;;
46563;SDS011;32291;52.010;4.446;2023-07-09T01:47:24;13.02;;;11.88;;
46563;SDS011;32291;52.010;4.446;2023-07-09T01:48:26;12.73;;;11.45;;
46563;SDS011;32291;52.010;4.446;2023-07-09T01:49:33;13.45;;;12.20;;
46563;SDS011;32291;52.010;4.446;2023-07-09T01:50:35;14.27;;;12.80;;
46563;SDS011;32291;52.010;4.446;2023-07-09T01:51:40;12.35;;;11.15;;
46563;SDS011;32291;52.010;4.446;2023-07-09T01:52:42;12.90;;;11.70;;
46563;SDS011;32291;52.010;4.446;2023-07-09T01:53:47;13.85;;;12.50;;
46563;SDS011;32291;52.010;4.446;2023-07-09T01:54:49;13.10;;;11.95;;
46563;SDS011;32291;52.010;4.446;2023-07-09T01:55:52;13.32;;;12.02;;
46563;SDS011;32291;52.010;4.446;2023-07-09T01:57:11;13.90;;;12.57;;
46563;SDS011;32291;52.010;4.446;2023-07-09T01:58:22;13.82;;;12.63;;
46563;SDS011;32291;52.010;4.446;2023-07-09T01:59:25;14.00;;;12.52;;
46563;SDS011;32291;52.010;4.446;2023-07-09T02:00:28;12.73;;;11.48;;
46563;SDS011;32291;52.010;4.446;2023-07-09T02:01:30;12.23;;;11.02;;
46563;SDS011;32291;52.010;4.446;2023-07-09T02:02:34;12.93;;;11.45;;
46563;SDS011;32291;52.010;4.446;2023-07-09T02:03:37;13.93;;;12.50;;
46563;SDS011;32291;52.010;4.446;2023-07-09T02:04:40;13.48;;;12.20;;
46563;SDS011;32291;52.010;4.446;2023-07-09T02:05:44;13.63;;;12.52;;
46563;SDS011;32291;52.010;4.446;2023-07-09T02:06:47;12.50;;;11.25;;
46563;SDS011;32291;52.010;4.446;2023-07-09T02:07:49;12.63;;;11.43;;
46563;SDS011;32291;52.010;4.446;2023-07-09T02:08:56;12.63;;;11.52;;
46563;SDS011;32291;52.010;4.446;2023-07-09T02:10:04;13.38;;;12.02;;
46563;SDS011;32291;52.010;4.446;2023-07-09T02:11:15;14.07;;;12.75;;
46563;SDS011;32291;52.010;4.446;2023-07-09T02:12:18;13.73;;;12.45;;
46563;SDS011;32291;52.010;4.446;2023-07-09T02:13:25;14.30;;;12.88;;
46563;SDS011;32291;52.010;4.446;2023-07-09T02:14:27;14.68;;;12.95;;
46563;SDS011;32291;52.010;4.446;2023-07-09T02:15:29;14.23;;;12.82;;
46563;SDS011;32291;52.010;4.446;2023-07-09T02:16:34;14.07;;;12.65;;
46563;SDS011;32291;52.010;4.446;2023-07-09T02:17:41;14.27;;;12.70;;
46563;SDS011;32291;52.010;4.446;2023-07-09T02:18:48;14.13;;;12.73;;
46563;SDS011;32291;52.010;4.446;2023-07-09T02:19:50;13.95;;;12.63;;
46563;SDS011;32291;52.010;4.446;2023-07-09T02:20:53;13.43;;;12.07;;
46563;SDS011;32291;52.010;4.446;2023-07-09T02:21:55;12.60;;;11.40;;
46563;SDS011;32291;52.010;4.446;2023-07-09T02:22:58;13.90;;;12.57;;
46563;SDS011;32291;52.010;4.446;2023-07-09T02:24:05;13.95;;;12.57;;
46563;SDS011;32291;52.010;4.446;2023-07-09T02:25:12;13.52;;;12.30;;
46563;SDS011;32291;52.010;4.446;2023-07-09T02:26:17;14.18;;;12.88;;
46563;SDS011;32291;52.010;4.446;2023-07-09T02:27:19;13.80;;;12.50;;
46563;SDS011;32291;52.010;4.446;2023-07-09T02:28:28;13.60;;;12.23;;
46563;SDS011;32291;52.010;4.446;2023-07-09T02:29:36;13.85;;;12.45;;
46563;SDS011;32291;52.010;4.446;2023-07-09T02:30:39;14.55;;;13.27;;
46563;SDS011;32291;52.010;4.446;2023-07-09T02:31:42;13.48;;;12.27;;
46563;SDS011;32291;52.010;4.446;2023-07-09T02:32:46;14.55;;;13.05;;
46563;SDS011;32291;52.010;4.446;2023-07-09T02:33:48;13.20;;;11.95;;
46563;SDS011;32291;52.010;4.446;2023-07-09T02:34:52;14.27;;;12.98;;
46563;SDS011;32291;52.010;4.446;2023-07-09T02:36:00;15.07;;;13.63;;
46563;SDS011;32291;52.010;4.446;2023-07-09T02:37:09;14.43;;;12.93;;
46563;SDS011;32291;52.010;4.446;2023-07-09T02:38:11;13.02;;;11.80;;
46563;SDS011;32291;52.010;4.446;2023-07-09T02:39:13;13.32;;;12.20;;
46563;SDS011;32291;52.010;4.446;2023-07-09T02:40:15;13.05;;;11.85;;
46563;SDS011;32291;52.010;4.446;2023-07-09T02:41:18;13.45;;;12.25;;
46563;SDS011;32291;52.010;4.446;2023-07-09T02:42:20;13.65;;;12.20;;
46563;SDS011;32291;52.010;4.446;2023-07-09T02:43:29;14.27;;;12.80;;
46563;SDS011;32291;52.010;4.446;2023-07-09T02:44:31;12.55;;;11.45;;
46563;SDS011;32291;52.010;4.446;2023-07-09T02:45:38;13.20;;;11.80;;
46563;SDS011;32291;52.010;4.446;2023-07-09T02:46:40;13.20;;;11.95;;
46563;SDS011;32291;52.010;4.446;2023-07-09T02:47:56;13.15;;;11.98;;
46563;SDS011;32291;52.010;4.446;2023-07-09T02:49:03;13.45;;;12.25;;
46563;SDS011;32291;52.010;4.446;2023-07-09T02:50:08;13.45;;;12.35;;
46563;SDS011;32291;52.010;4.446;2023-07-09T02:51:16;13.52;;;12.20;;
46563;SDS011;32291;52.010;4.446;2023-07-09T02:52:19;11.82;;;10.82;;
46563;SDS011;32291;52.010;4.446;2023-07-09T02:53:26;13.10;;;11.90;;
46563;SDS011;32291;52.010;4.446;2023-07-09T02:54:34;13.35;;;12.05;;
46563;SDS011;32291;52.010;4.446;2023-07-09T02:55:36;13.07;;;11.82;;
46563;SDS011;32291;52.010;4.446;2023-07-09T02:56:43;13.50;;;12.27;;
46563;SDS011;32291;52.010;4.446;2023-07-09T02:57:50;13.25;;;12.10;;
46563;SDS011;32291;52.010;4.446;2023-07-09T02:58:55;13.30;;;12.10;;
46563;SDS011;32291;52.010;4.446;2023-07-09T03:00:02;13.65;;;12.38;;
46563;SDS011;32291;52.010;4.446;2023-07-09T03:01:06;13.50;;;12.40;;
46563;SDS011;32291;52.010;4.446;2023-07-09T03:02:09;13.05;;;11.90;;
46563;SDS011;32291;52.010;4.446;2023-07-09T03:03:12;13.55;;;12.35;;
46563;SDS011;32291;52.010;4.446;2023-07-09T03:04:19;12.82;;;11.65;;
46563;SDS011;32291;52.010;4.446;2023-07-09T03:05:24;13.68;;;12.48;;
46563;SDS011;32291;52.010;4.446;2023-07-09T03:06:26;13.52;;;12.32;;
46563;SDS011;32291;52.010;4.446;2023-07-09T03:07:29;13.68;;;12.48;;
46563;SDS011;32291;52.010;4.446;2023-07-09T03:08:31;13.27;;;12.18;;
46563;SDS011;32291;52.010;4.446;2023-07-09T03:09:34;13.80;;;12.48;;
46563;SDS011;32291;52.010;4.446;2023-07-09T03:10:36;14.00;;;12.70;;
46563;SDS011;32291;52.010;4.446;2023-07-09T03:11:43;13.85;;;12.65;;
46563;SDS011;32291;52.010;4.446;2023-07-09T03:12:45;14.32;;;13.02;;
46563;SDS011;32291;52.010;4.446;2023-07-09T03:13:50;14.43;;;13.13;;
46563;SDS011;32291;52.010;4.446;2023-07-09T03:14:53;14.23;;;13.02;;
46563;SDS011;32291;52.010;4.446;2023-07-09T03:15:59;14.13;;;12.68;;
46563;SDS011;32291;52.010;4.446;2023-07-09T03:17:02;15.48;;;13.98;;
46563;SDS011;32291;52.010;4.446;2023-07-09T03:18:10;13.50;;;12.20;;
46563;SDS011;32291;52.010;4.446;2023-07-09T03:19:12;14.10;;;12.68;;
46563;SDS011;32291;52.010;4.446;2023-07-09T03:20:14;15.20;;;13.35;;
46563;SDS011;32291;52.010;4.446;2023-07-09T03:21:16;14.93;;;13.52;;
46563;SDS011;32291;52.010;4.446;2023-07-09T03:22:19;14.65;;;13.25;;
46563;SDS011;32291;52.010;4.446;2023-07-09T03:23:26;15.27;;;13.68;;
46563;SDS011;32291;52.010;4.446;2023-07-09T03:24:33;14.82;;;13.50;;
46563;SDS011;32291;52.010;4.446;2023-07-09T03:25:40;14.98;;;13.55;;
46563;SDS011;32291;52.010;4.446;2023-07-09T03:26:50;15.18;;;13.88;;
46563;SDS011;32291;52.010;4.446;2023-07-09T03:27:55;14.27;;;12.98;;
46563;SDS011;32291;52.010;4.446;2023-07-09T03:28:58;14.25;;;12.95;;
46563;SDS011;32291;52.010;4.446;2023-07-09T03:30:00;15.20;;;13.98;;
46563;SDS011;32291;52.010;4.446;2023-07-09T03:33:11;14.73;;;13.32;;
46563;SDS011;32291;52.010;4.446;2023-07-09T03:34:16;15.07;;;13.65;;
46563;SDS011;32291;52.010;4.446;2023-07-09T03:35:21;14.35;;;13.07;;
46563;SDS011;32291;52.010;4.446;2023-07-09T03:36:31;13.95;;;12.55;;
46563;SDS011;32291;52.010;4.446;2023-07-09T03:37:33;14.25;;;12.82;;
46563;SDS011;32291;52.010;4.446;2023-07-09T03:38:35;14.35;;;12.90;;
46563;SDS011;32291;52.010;4.446;2023-07-09T03:39:42;14.45;;;13.13;;
46563;SDS011;32291;52.010;4.446;2023-07-09T03:40:53;13.68;;;12.40;;
46563;SDS011;32291;52.010;4.446;2023-07-09T03:41:56;13.90;;;12.70;;
46563;SDS011;32291;52.010;4.446;2023-07-09T03:43:01;13.95;;;12.55;;
46563;SDS011;32291;52.010;4.446;2023-07-09T03:44:03;12.95;;;11.88;;
46563;SDS011;32291;52.010;4.446;2023-07-09T03:45:06;14.57;;;13.38;;
46563;SDS011;32291;52.010;4.446;2023-07-09T03:46:13;13.88;;;12.68;;
46563;SDS011;32291;52.010;4.446;2023-07-09T03:47:20;15.32;;;13.93;;
46563;SDS011;32291;52.010;4.446;2023-07-09T03:48:22;16.48;;;14.95;;
46563;SDS011;32291;52.010;4.446;2023-07-09T03:49:29;15.48;;;13.88;;
46563;SDS011;32291;52.010;4.446;2023-07-09T03:50:36;16.92;;;15.13;;
46563;SDS011;32291;52.010;4.446;2023-07-09T03:51:38;16.48;;;14.95;;
46563;SDS011;32291;52.010;4.446;2023-07-09T03:52:40;17.65;;;15.95;;
46563;SDS011;32291;52.010;4.446;2023-07-09T03:53:44;16.73;;;15.10;;
46563;SDS011;32291;52.010;4.446;2023-07-09T03:54:46;15.93;;;14.52;;
46563;SDS011;32291;52.010;4.446;2023-07-09T03:55:52;17.33;;;15.82;;
46563;SDS011;32291;52.010;4.446;2023-07-09T03:57:02;17.27;;;15.55;;
46563;SDS011;32291;52.010;4.446;2023-07-09T03:58:10;16.55;;;15.05;;
46563;SDS011;32291;52.010;4.446;2023-07-09T03:59:12;16.40;;;14.90;;
46563;SDS011;32291;52.010;4.446;2023-07-09T04:00:14;16.40;;;14.80;;
46563;SDS011;32291;52.010;4.446;2023-07-09T04:01:17;15.68;;;14.13;;
46563;SDS011;32291;52.010;4.446;2023-07-09T04:02:24;15.43;;;13.98;;
46563;SDS011;32291;52.010;4.446;2023-07-09T04:03:26;15.75;;;14.23;;
46563;SDS011;32291;52.010;4.446;2023-07-09T04:04:28;16.30;;;14.85;;
46563;SDS011;32291;52.010;4.446;2023-07-09T04:05:35;16.20;;;14.80;;
46563;SDS011;32291;52.010;4.446;2023-07-09T04:06:38;16.90;;;15.20;;
46563;SDS011;32291;52.010;4.446;2023-07-09T04:07:40;16.40;;;14.90;;
46563;SDS011;32291;52.010;4.446;2023-07-09T04:08:43;15.10;;;13.70;;
46563;SDS011;32291;52.010;4.446;2023-07-09T04:09:45;16.60;;;14.90;;
46563;SDS011;32291;52.010;4.446;2023-07-09T04:10:47;16.05;;;14.55;;
46563;SDS011;32291;52.010;4.446;2023-07-09T04:11:54;16.10;;;14.70;;
46563;SDS011;32291;52.010;4.446;2023-07-09T04:13:01;16.20;;;14.75;;
46563;SDS011;32291;52.010;4.446;2023-07-09T04:14:06;17.63;;;16.00;;
46563;SDS011;32291;52.010;4.446;2023-07-09T04:15:09;16.45;;;15.05;;
46563;SDS011;32291;52.010;4.446;2023-07-09T04:16:13;21.20;;;19.30;;
46563;SDS011;32291;52.010;4.446;2023-07-09T04:17:15;17.65;;;16.10;;
46563;SDS011;32291;52.010;4.446;2023-07-09T04:18:17;18.67;;;16.98;;
46563;SDS011;32291;52.010;4.446;2023-07-09T04:19:19;16.38;;;14.88;;
46563;SDS011;32291;52.010;4.446;2023-07-09T04:20:28;16.92;;;15.52;;
46563;SDS011;32291;52.010;4.446;2023-07-09T04:21:31;17.30;;;15.73;;
46563;SDS011;32291;52.010;4.446;2023-07-09T04:22:36;19.50;;;17.85;;
46563;SDS011;32291;52.010;4.446;2023-07-09T04:23:39;18.38;;;16.73;;
46563;SDS011;32291;52.010;4.446;2023-07-09T04:24:44;20.30;;;18.38;;
46563;SDS011;32291;52.010;4.446;2023-07-09T04:25:47;19.55;;;17.60;;
46563;SDS011;32291;52.010;4.446;2023-07-09T04:26:54;18.73;;;17.02;;
46563;SDS011;32291;52.010;4.446;2023-07-09T04:28:02;18.40;;;16.80;;
46563;SDS011;32291;52.010;4.446;2023-07-09T04:29:05;18.13;;;16.52;;
46563;SDS011;32291;52.010;4.446;2023-07-09T04:30:08;19.08;;;17.27;;
46563;SDS011;32291;52.010;4.446;2023-07-09T04:31:16;19.42;;;17.55;;
46563;SDS011;32291;52.010;4.446;2023-07-09T04:32:23;17.55;;;16.15;;
46563;SDS011;32291;52.010;4.446;2023-07-09T04:33:25;17.27;;;15.68;;
46563;SDS011;32291;52.010;4.446;2023-07-09T04:34:33;19.13;;;17.33;;
46563;SDS011;32291;52.010;4.446;2023-07-09T04:35:35;19.25;;;17.40;;
46563;SDS011;32291;52.010;4.446;2023-07-09T04:36:42;19.83;;;17.98;;
46563;SDS011;32291;52.010;4.446;2023-07-09T04:37:50;18.73;;;17.05;;
46563;SDS011;32291;52.010;4.446;2023-07-09T04:38:52;19.33;;;17.52;;
46563;SDS011;32291;52.010;4.446;2023-07-09T04:39:59;18.90;;;17.30;;
46563;SDS011;32291;52.010;4.446;2023-07-09T04:41:01;17.80;;;16.13;;
46563;SDS011;32291;52.010;4.446;2023-07-09T04:42:03;16.67;;;15.10;;
46563;SDS011;32291;52.010;4.446;2023-07-09T04:43:08;18.85;;;17.05;;
46563;SDS011;32291;52.010;4.446;2023-07-09T04:44:10;19.35;;;17.55;;
46563;SDS011;32291;52.010;4.446;2023-07-09T04:45:12;19.52;;;17.67;;
46563;SDS011;32291;52.010;4.446;2023-07-09T04:46:19;19.88;;;17.83;;
46563;SDS011;32291;52.010;4.446;2023-07-09T04:47:21;19.25;;;17.38;;
46563;SDS011;32291;52.010;4.446;2023-07-09T04:48:27;18.08;;;16.27;;
46563;SDS011;32291;52.010;4.446;2023-07-09T04:49:34;18.63;;;16.92;;
46563;SDS011;32291;52.010;4.446;2023-07-09T04:50:36;19.05;;;17.35;;
46563;SDS011;32291;52.010;4.446;2023-07-09T04:51:38;18.02;;;16.42;;
46563;SDS011;32291;52.010;4.446;2023-07-09T04:52:41;18.30;;;16.65;;
46563;SDS011;32291;52.010;4.446;2023-07-09T04:53:43;19.67;;;17.92;;
46563;SDS011;32291;52.010;4.446;2023-07-09T04:54:50;17.65;;;16.15;;
46563;SDS011;32291;52.010;4.446;2023-07-09T04:55:52;16.98;;;15.45;;
46563;SDS011;32291;52.010;4.446;2023-07-09T04:56:56;19.00;;;17.23;;
46563;SDS011;32291;52.010;4.446;2023-07-09T04:58:04;18.20;;;16.50;;
46563;SDS011;32291;52.010;4.446;2023-07-09T04:59:07;17.42;;;15.63;;
46563;SDS011;32291;52.010;4.446;2023-07-09T05:00:10;18.02;;;16.33;;
46563;SDS011;32291;52.010;4.446;2023-07-09T05:01:13;16.05;;;14.75;;
46563;SDS011;32291;52.010;4.446;2023-07-09T05:02:20;17.15;;;15.43;;
46563;SDS011;32291;52.010;4.446;2023-07-09T05:03:23;19.92;;;18.02;;
46563;SDS011;32291;52.010;4.446;2023-07-09T05:04:25;18.30;;;16.73;;
46563;SDS011;32291;52.010;4.446;2023-07-09T05:05:27;20.55;;;18.65;;
46563;SDS011;32291;52.010;4.446;2023-07-09T05:06:29;18.92;;;17.10;;
46563;SDS011;32291;52.010;4.446;2023-07-09T05:07:32;19.08;;;17.30;;
46563;SDS011;32291;52.010;4.446;2023-07-09T05:08:38;20.27;;;18.50;;
46563;SDS011;32291;52.010;4.446;2023-07-09T05:09:42;19.67;;;17.65;;
46563;SDS011;32291;52.010;4.446;2023-07-09T05:10:46;20.35;;;18.33;;
46563;SDS011;32291;52.010;4.446;2023-07-09T05:11:52;24.00;;;21.52;;
46563;SDS011;32291;52.010;4.446;2023-07-09T05:12:54;23.33;;;20.95;;
46563;SDS011;32291;52.010;4.446;2023-07-09T05:13:57;22.63;;;20.40;;
46563;SDS011;32291;52.010;4.446;2023-07-09T05:14:59;24.33;;;21.95;;
46563;SDS011;32291;52.010;4.446;2023-07-09T05:16:01;24.70;;;22.38;;
46563;SDS011;32291;52.010;4.446;2023-07-09T05:17:04;23.75;;;21.48;;
46563;SDS011;32291;52.010;4.446;2023-07-09T05:18:13;23.10;;;21.00;;
46563;SDS011;32291;52.010;4.446;2023-07-09T05:19:21;23.60;;;21.48;;
46563;SDS011;32291;52.010;4.446;2023-07-09T05:20:23;25.30;;;22.73;;
46563;SDS011;32291;52.010;4.446;2023-07-09T05:21:26;25.95;;;23.35;;
46563;SDS011;32291;52.010;4.446;2023-07-09T05:22:28;26.23;;;23.80;;
46563;SDS011;32291;52.010;4.446;2023-07-09T05:23:35;25.73;;;23.15;;
46563;SDS011;32291;52.010;4.446;2023-07-09T05:24:37;26.55;;;24.25;;
46563;SDS011;32291;52.010;4.446;2023-07-09T05:25:49;29.08;;;26.48;;
46563;SDS011;32291;52.010;4.446;2023-07-09T05:27:00;29.05;;;26.35;;
46563;SDS011;32291;52.010;4.446;2023-07-09T05:28:04;29.05;;;26.55;;
46563;SDS011;32291;52.010;4.446;2023-07-09T05:29:12;28.40;;;25.70;;
46563;SDS011;32291;52.010;4.446;2023-07-09T05:30:14;28.48;;;25.90;;
46563;SDS011;32291;52.010;4.446;2023-07-09T05:31:17;29.50;;;26.85;;
46563;SDS011;32291;52.010;4.446;2023-07-09T05:32:21;29.30;;;26.45;;
46563;SDS011;32291;52.010;4.446;2023-07-09T05:33:30;29.20;;;26.27;;
46563;SDS011;32291;52.010;4.446;2023-07-09T05:34:32;29.58;;;26.67;;
46563;SDS011;32291;52.010;4.446;2023-07-09T05:35:34;32.03;;;28.70;;
46563;SDS011;32291;52.010;4.446;2023-07-09T05:36:36;30.83;;;28.23;;
46563;SDS011;32291;52.010;4.446;2023-07-09T05:37:40;30.75;;;27.98;;
46563;SDS011;32291;52.010;4.446;2023-07-09T05:38:43;29.88;;;27.15;;
46563;SDS011;32291;52.010;4.446;2023-07-09T05:39:48;30.55;;;27.67;;
46563;SDS011;32291;52.010;4.446;2023-07-09T05:40:58;27.60;;;25.25;;
46563;SDS011;32291;52.010;4.446;2023-07-09T05:42:10;28.75;;;26.15;;
46563;SDS011;32291;52.010;4.446;2023-07-09T05:43:12;29.20;;;26.67;;
46563;SDS011;32291;52.010;4.446;2023-07-09T05:44:14;27.67;;;25.10;;
46563;SDS011;32291;52.010;4.446;2023-07-09T05:45:17;28.63;;;26.08;;
46563;SDS011;32291;52.010;4.446;2023-07-09T05:46:21;27.88;;;25.27;;
46563;SDS011;32291;52.010;4.446;2023-07-09T05:47:30;26.60;;;24.13;;
46563;SDS011;32291;52.010;4.446;2023-07-09T05:48:39;25.40;;;23.27;;
46563;SDS011;32291;52.010;4.446;2023-07-09T05:49:46;24.88;;;22.35;;
46563;SDS011;32291;52.010;4.446;2023-07-09T05:50:52;25.58;;;23.30;;
46563;SDS011;32291;52.010;4.446;2023-07-09T05:52:03;25.73;;;23.42;;
46563;SDS011;32291;52.010;4.446;2023-07-09T05:53:10;24.85;;;22.60;;
46563;SDS011;32291;52.010;4.446;2023-07-09T05:54:15;24.35;;;22.20;;
46563;SDS011;32291;52.010;4.446;2023-07-09T05:55:22;23.83;;;21.67;;
46563;SDS011;32291;52.010;4.446;2023-07-09T05:56:29;25.23;;;22.80;;
46563;SDS011;32291;52.010;4.446;2023-07-09T05:57:32;25.45;;;23.05;;
46563;SDS011;32291;52.010;4.446;2023-07-09T05:58:41;24.25;;;22.00;;
46563;SDS011;32291;52.010;4.446;2023-07-09T05:59:48;23.30;;;21.17;;
46563;SDS011;32291;52.010;4.446;2023-07-09T06:00:51;22.38;;;20.27;;
46563;SDS011;32291;52.010;4.446;2023-07-09T06:01:55;23.42;;;21.23;;
46563;SDS011;32291;52.010;4.446;2023-07-09T06:03:02;24.77;;;22.30;;
46563;SDS011;32291;52.010;4.446;2023-07-09T06:04:13;24.45;;;22.15;;
46563;SDS011;32291;52.010;4.446;2023-07-09T06:05:15;22.95;;;20.85;;
46563;SDS011;32291;52.010;4.446;2023-07-09T06:06:18;23.92;;;21.77;;
46563;SDS011;32291;52.010;4.446;2023-07-09T06:07:25;22.23;;;20.23;;
46563;SDS011;32291;52.010;4.446;2023-07-09T06:08:27;24.17;;;21.88;;
46563;SDS011;32291;52.010;4.446;2023-07-09T06:09:34;25.30;;;23.00;;
46563;SDS011;32291;52.010;4.446;2023-07-09T06:10:52;25.50;;;23.17;;
46563;SDS011;32291;52.010;4.446;2023-07-09T06:11:57;25.38;;;22.88;;
46563;SDS011;32291;52.010;4.446;2023-07-09T06:13:04;26.63;;;23.88;;
46563;SDS011;32291;52.010;4.446;2023-07-09T06:14:06;25.60;;;23.20;;
46563;SDS011;32291;52.010;4.446;2023-07-09T06:15:13;25.90;;;23.52;;
46563;SDS011;32291;52.010;4.446;2023-07-09T06:16:20;25.15;;;22.70;;
46563;SDS011;32291;52.010;4.446;2023-07-09T06:17:22;24.15;;;21.85;;
46563;SDS011;32291;52.010;4.446;2023-07-09T06:18:25;23.38;;;21.25;;
46563;SDS011;32291;52.010;4.446;2023-07-09T06:19:36;23.55;;;21.48;;
46563;SDS011;32291;52.010;4.446;2023-07-09T06:20:38;22.98;;;20.85;;
46563;SDS011;32291;52.010;4.446;2023-07-09T06:21:45;23.30;;;21.00;;
46563;SDS011;32291;52.010;4.446;2023-07-09T06:22:52;24.48;;;21.85;;
46563;SDS011;32291;52.010;4.446;2023-07-09T06:23:59;22.02;;;20.02;;
46563;SDS011;32291;52.010;4.446;2023-07-09T06:25:01;21.30;;;19.30;;
46563;SDS011;32291;52.010;4.446;2023-07-09T06:26:06;22.02;;;19.90;;
46563;SDS011;32291;52.010;4.446;2023-07-09T06:27:09;20.77;;;18.67;;
46563;SDS011;32291;52.010;4.446;2023-07-09T06:28:11;21.27;;;19.35;;
46563;SDS011;32291;52.010;4.446;2023-07-09T06:29:19;20.80;;;18.48;;
46563;SDS011;32291;52.010;4.446;2023-07-09T06:30:21;20.50;;;18.50;;
46563;SDS011;32291;52.010;4.446;2023-07-09T06:31:24;18.48;;;16.67;;